Flight Track Log - Related Links

Times and Time Zones

All times are in EDT time to prevent confusion due to time zone crossing. See the UCA3597 flight status page for this flight to view local times or setup timezone preferences in your user account.

Time Position Orientation Groundspeed Altitude Reporting Facility
EDT Latitude Longitude Course Direction KTS MPH feet Rate Location/Type
Sun 07:26:36 PM 42.1883 -76.0689 211° Southwest 151 174 5,100  Level New York Center
Sun 07:27:36 PM 42.1386 -76.1097 211° Southwest 184 212 6,100 1,000 Climbing New York Center
Sun 07:28:36 PM 42.0844 -76.1556 212° Southwest 217 250 7,100 950 Climbing New York Center
Sun 07:29:36 PM 42.0281 -76.2039 212° Southwest 231 266 8,000 1,000 Climbing New York Center
Sun 07:30:36 PM 41.9739 -76.2525 214° Southwest 242 278 9,100 1,000 Climbing New York Center
Sun 07:31:00 PM 41.8338 -76.1577 211° Southwest  Level Estimated
Sun 07:31:36 PM 41.9222 -76.2900 208° Southwest 242 278 10,000  Level New York Center
Sun 07:32:36 PM 41.8681 -76.3358 212° Southwest 242 278 10,900 1,000 Climbing New York Center
Sun 07:33:36 PM 41.8072 -76.3892 213° Southwest 242 278 12,000 1,150 Climbing New York Center
Sun 07:34:36 PM 41.7508 -76.4344 211° Southwest 242 278 13,200 1,100 Climbing New York Center
Sun 07:35:36 PM 41.7053 -76.4750 214° Southwest 242 278 14,200 1,000 Climbing New York Center
Sun 07:36:36 PM 41.6489 -76.5172 209° Southwest 242 278 15,200 900 Climbing New York Center
Sun 07:37:36 PM 41.5903 -76.5706 214° Southwest 242 278 16,000 400 Climbing New York Center
Sun 07:38:36 PM 41.5272 -76.6206 211° Southwest 249 287 16,000  Level New York Center
Sun 07:39:36 PM 41.4642 -76.6731 212° Southwest 261 300 16,000  Level New York Center
Sun 07:40:36 PM 41.4053 -76.7261 214° Southwest 275 316 16,000  Level New York Center
Sun 07:41:36 PM 41.3381 -76.7808 211° Southwest 286 329 16,000  Level New York Center
Sun 07:42:36 PM 41.2603 -76.7961 188° South 280 322 16,000  Level New York Center
Sun 07:43:36 PM 41.1822 -76.8114 188° South 280 322 16,000  Level New York Center
Sun 07:44:36 PM 41.1044 -76.8264 188° South 285 328 16,000  Level New York Center
Sun 07:45:36 PM 41.0267 -76.8386 187° South 285 328 16,000  Level New York Center
Sun 07:46:36 PM 40.9486 -76.8564 190° South 285 328 16,000  Level New York Center
Sun 07:47:36 PM 40.8647 -76.8708 187° South 285 328 16,000  Level New York Center
Sun 07:48:36 PM 40.7931 -76.8864 189° South 285 328 16,000 50 Level New York Center
Sun 07:49:36 PM 40.7083 -76.9089 191° South 279 321 16,100 50 Climbing New York Center
Sun 07:50:36 PM 40.6406 -76.9331 195° South 284 327 16,100  Level New York Center
Sun 07:51:36 PM 40.5578 -76.9583 193° South 284 327 16,100  Level New York Center
Sun 07:52:36 PM 40.4900 -76.9797 193° South 284 327 16,100 -357 Level New York Center
Sun 07:54:24 PM 40.3333 -77.0333 195° South 296 341 15,100 -607 Descending Potomac TRACON
Sun 07:55:24 PM 40.2667 -77.0500 191° South 294 338 14,400 -750 Descending Potomac TRACON
Sun 07:56:24 PM 40.1833 -77.0667 189° South 289 333 13,600 -750 Descending Potomac TRACON
Sun 07:57:24 PM 40.1000 -77.1000 197° South 287 330 12,900 -950 Descending Potomac TRACON
Sun 07:58:24 PM 40.0333 -77.1000 180° South 300 345 11,700 -1,000 Descending Potomac TRACON
Sun 07:59:24 PM 39.9500 -77.0833 171° South 287 330 10,900 -1,000 Descending Potomac TRACON
Sun 08:00:24 PM 39.8667 -77.0500 163° South 286 329 9,700 -1,000 Descending Potomac TRACON
Sun 08:01:24 PM 39.8000 -77.0833 201° Southwest 267 307 8,900 -750 Descending Potomac TRACON
Sun 08:02:24 PM 39.7500 -77.1500 226° Southwest 264 304 8,200 -684 Descending Potomac TRACON
Sun 08:03:18 PM 39.7000 -77.2000 218° Southwest 262 302 7,600 -632 Descending Potomac TRACON
Sun 08:04:18 PM 39.6667 -77.2833 243° Southwest 256 295 7,000 -300 Descending Potomac TRACON
Sun 08:05:18 PM 39.6167 -77.3333 218° Southwest 260 299 7,000  Level Potomac TRACON
Sun 08:06:18 PM 39.5333 -77.3500 189° South 262 302 7,000  Level Potomac TRACON
Sun 08:07:24 PM 39.4667 -77.3500 180° South 261 300 7,000 -48 Level Potomac TRACON
Sun 08:08:24 PM 39.3833 -77.3667 189° South 260 299 6,900 -600 Descending Potomac TRACON
Sun 08:09:24 PM 39.3167 -77.3667 180° South 248 285 5,800 -1,050 Descending Potomac TRACON
Sun 08:10:24 PM 39.2500 -77.3667 180° South 254 292 4,800 -850 Descending Potomac TRACON
Sun 08:11:24 PM 39.1833 -77.3667 180° South 258 297 4,100 -421 Descending Potomac TRACON
Sun 08:12:18 PM 39.1167 -77.3667 180° South 259 298 4,000 -50 Descending Potomac TRACON
Sun 08:13:24 PM 39.0333 -77.3667 180° South 262 302 4,000  Level Potomac TRACON
Sun 08:14:18 PM 38.9667 -77.3500 169° South 247 284 4,000 -263 Level Potomac TRACON
Sun 08:15:18 PM 38.9000 -77.3500 180° South 234 269 3,500 -496 Descending Potomac TRACON
Sun 08:16:19 PM 38.8333 -77.3667 191° South 219 252 3,000 -248 Descending Potomac TRACON
Sun 08:17:19 PM 38.7833 -77.3667 180° South 221 254 3,000 -400 Level Potomac TRACON
Sun 08:18:19 PM 38.7500 -77.4000 218° Southwest 214 246 2,200 -500 Descending Potomac TRACON
Sun 08:19:19 PM 38.7833 -77.4333 322° Northwest 170 196 2,000 -100 Descending Potomac TRACON
Sun 08:20:19 PM 38.8167 -77.4333 360° North 165 190 2,000 -211 Level Potomac TRACON
Sun 08:21:13 PM 38.8500 -77.4333 360° North 144 166 1,600 -526 Descending Potomac TRACON
Sun 08:22:13 PM 38.8833 -77.4333 360° North 104 120 1,000 -600 Descending Potomac TRACON
Sun 08:24:00 PM 38.9333 -77.4500 349° North  Level FlightAware Approximate
Sun 08:31:00 PM 38.9474 -77.4599 349° North  Level Estimated
Sun 08:32:00 PM 38.9474 -77.4599 349° North  Level Estimated

Login

Don't have an account? Register now (free) for customized features, flight alerts, and more!